createdAt,value
2023-10-26T00:02:19.832Z,10.10
2023-10-26T00:04:47.166Z,9.52
2023-10-26T00:07:15.536Z,9.98
2023-10-26T00:09:42.730Z,9.93
2023-10-26T00:12:09.978Z,10.13
2023-10-26T00:14:37.257Z,9.82
2023-10-26T00:17:04.488Z,9.85
2023-10-26T00:19:31.699Z,10.82
2023-10-26T00:21:58.948Z,10.35
2023-10-26T00:24:26.258Z,9.48
2023-10-26T00:26:53.532Z,10.38
2023-10-26T00:29:20.892Z,9.40
2023-10-26T00:31:48.137Z,9.52
2023-10-26T00:34:15.447Z,10.00
2023-10-26T00:36:46.557Z,9.55
2023-10-26T00:39:13.809Z,10.38
2023-10-26T00:41:41.114Z,10.48
2023-10-26T00:44:08.388Z,9.75
2023-10-26T00:46:36.574Z,10.45
2023-10-26T00:49:04.533Z,10.00
2023-10-26T00:51:31.858Z,9.82
2023-10-26T00:53:59.184Z,11.27
2023-10-26T00:56:27.634Z,10.35
2023-10-26T00:58:55.416Z,11.25
2023-10-26T01:01:23.124Z,10.07
2023-10-26T01:03:50.951Z,11.57
2023-10-26T01:06:18.236Z,10.02
2023-10-26T01:08:46.788Z,9.60
2023-10-26T01:11:14.619Z,10.48
2023-10-26T01:13:42.101Z,10.70
2023-10-26T01:16:09.297Z,9.65
2023-10-26T01:18:36.684Z,9.43
2023-10-26T01:21:04.046Z,9.50
2023-10-26T01:23:31.299Z,10.80
2023-10-26T01:25:59.788Z,10.77
2023-10-26T01:28:27.337Z,10.85
2023-10-26T01:30:55.177Z,10.25
2023-10-26T01:33:22.588Z,10.60
2023-10-26T01:35:50.042Z,9.45
2023-10-26T01:38:17.431Z,10.45
2023-10-26T01:40:44.953Z,10.82
2023-10-26T01:43:12.321Z,10.50
2023-10-26T01:45:39.602Z,9.98
2023-10-26T01:48:07.135Z,10.30
2023-10-26T01:50:34.501Z,10.15
2023-10-26T01:53:01.799Z,9.75
2023-10-26T01:55:29.247Z,9.82
2023-10-26T01:57:56.592Z,10.02
2023-10-26T02:00:23.932Z,9.77
2023-10-26T02:02:51.372Z,10.32
2023-10-26T02:05:18.806Z,10.43
2023-10-26T02:07:46.073Z,9.27
2023-10-26T02:10:14.914Z,9.80
2023-10-26T02:12:42.500Z,11.40
2023-10-26T02:15:10.831Z,11.80
2023-10-26T02:17:38.842Z,10.75
2023-10-26T02:20:06.348Z,11.88
2023-10-26T02:22:33.585Z,11.80
2023-10-26T02:25:00.878Z,12.43
2023-10-26T02:27:28.145Z,15.10
2023-10-26T02:29:55.445Z,13.77
2023-10-26T02:32:23.002Z,19.40
2023-10-26T02:34:50.346Z,13.43
2023-10-26T02:37:19.809Z,16.45
2023-10-26T02:39:47.566Z,20.67
2023-10-26T02:42:15.365Z,21.08
2023-10-26T02:44:42.875Z,18.75
2023-10-26T02:47:10.259Z,14.25
2023-10-26T02:49:37.517Z,18.63
2023-10-26T02:52:04.797Z,18.85
2023-10-26T02:54:32.327Z,14.02
2023-10-26T02:56:59.573Z,14.02
2023-10-26T02:59:26.777Z,17.20
2023-10-26T03:01:54.016Z,13.68
2023-10-26T03:04:21.260Z,15.35
2023-10-26T03:06:48.578Z,11.90
2023-10-26T03:09:15.832Z,11.90
2023-10-26T03:11:43.081Z,16.38
2023-10-26T03:14:10.836Z,15.85
2023-10-26T03:16:39.323Z,11.77
2023-10-26T03:19:07.861Z,10.63
2023-10-26T03:21:35.264Z,11.15
2023-10-26T03:24:02.551Z,13.50
2023-10-26T03:26:29.880Z,11.68
2023-10-26T03:28:57.127Z,16.30
2023-10-26T03:31:24.351Z,15.60
2023-10-26T03:33:51.649Z,13.70
2023-10-26T03:36:21.471Z,17.48
2023-10-26T03:38:50.912Z,12.57
2023-10-26T03:41:21.207Z,15.35
2023-10-26T03:43:48.986Z,18.75
2023-10-26T03:46:16.174Z,17.75
2023-10-26T03:48:45.484Z,14.60
2023-10-26T03:51:14.616Z,14.38
2023-10-26T03:53:42.598Z,20.05
2023-10-26T03:56:10.361Z,15.93
2023-10-26T03:58:37.571Z,20.00
2023-10-26T04:01:06.437Z,18.08
2023-10-26T04:03:34.026Z,20.98
2023-10-26T04:06:01.376Z,14.18
2023-10-26T04:08:28.588Z,17.58
2023-10-26T04:10:55.761Z,14.40
2023-10-26T04:13:23.041Z,17.90
2023-10-26T04:15:51.309Z,21.13
2023-10-26T04:18:18.680Z,15.43
2023-10-26T04:20:46.008Z,21.20
2023-10-26T04:23:13.276Z,20.38
2023-10-26T04:25:53.735Z,19.33
2023-10-26T04:28:22.474Z,16.15
2023-10-26T04:30:49.946Z,17.48
2023-10-26T04:33:17.557Z,18.17
2023-10-26T04:35:45.669Z,17.30
2023-10-26T04:38:13.210Z,18.30
2023-10-26T04:40:41.333Z,18.08
2023-10-26T04:43:09.946Z,14.02
2023-10-26T04:45:37.552Z,14.00
2023-10-26T04:48:05.282Z,11.57
2023-10-26T04:50:33.408Z,11.05
2023-10-26T04:53:03.259Z,15.13
2023-10-26T04:55:35.297Z,14.90
2023-10-26T04:58:02.980Z,13.30
2023-10-26T05:00:31.256Z,13.00
2023-10-26T05:02:58.776Z,12.55
2023-10-26T05:05:26.420Z,19.23
2023-10-26T05:07:53.781Z,18.48
2023-10-26T05:10:21.605Z,12.10
2023-10-26T05:12:48.833Z,16.50
2023-10-26T05:15:16.218Z,19.27
2023-10-26T05:17:43.544Z,15.02
2023-10-26T05:20:11.182Z,14.90
2023-10-26T05:22:38.483Z,15.25
2023-10-26T05:25:06.143Z,15.07
2023-10-26T05:27:37.433Z,14.73
2023-10-26T05:30:06.061Z,16.67
2023-10-26T05:32:33.476Z,13.15
2023-10-26T05:35:00.808Z,13.00
2023-10-26T05:37:28.112Z,17.77
2023-10-26T05:39:55.374Z,14.80
2023-10-26T05:42:22.689Z,15.38
2023-10-26T05:44:49.957Z,15.52
2023-10-26T05:47:19.341Z,12.55
2023-10-26T05:49:48.407Z,14.35
2023-10-26T05:52:15.697Z,13.85
2023-10-26T05:54:43.160Z,14.40
2023-10-26T05:57:10.731Z,13.23
2023-10-26T05:59:37.961Z,13.57
2023-10-26T06:02:05.280Z,17.52
2023-10-26T06:04:33.448Z,11.20
2023-10-26T06:07:02.468Z,15.55
2023-10-26T06:09:29.775Z,17.88
2023-10-26T06:11:57.127Z,17.95
2023-10-26T06:14:24.371Z,17.90
2023-10-26T06:16:51.609Z,18.63
2023-10-26T06:19:18.958Z,14.27
2023-10-26T06:21:46.117Z,14.88
2023-10-26T06:24:13.387Z,16.65
2023-10-26T06:26:40.745Z,16.73
2023-10-26T06:29:07.941Z,16.50
2023-10-26T06:31:35.221Z,15.88
2023-10-26T06:34:02.416Z,13.77
2023-10-26T06:36:29.589Z,15.48
2023-10-26T06:38:57.914Z,13.88
2023-10-26T06:41:25.424Z,13.52
2023-10-26T06:43:53.356Z,13.52
2023-10-26T06:46:20.833Z,12.90
2023-10-26T06:48:48.230Z,13.85
2023-10-26T06:51:15.631Z,12.77
2023-10-26T06:53:43.027Z,10.52
2023-10-26T06:56:13.826Z,12.00
2023-10-26T06:58:43.502Z,11.45
2023-10-26T07:01:19.984Z,9.95
2023-10-26T07:03:48.225Z,11.35
2023-10-26T07:06:15.679Z,9.95
2023-10-26T07:08:43.046Z,11.48
2023-10-26T07:11:10.315Z,11.20
2023-10-26T07:13:37.581Z,9.15
2023-10-26T07:16:05.125Z,11.98
2023-10-26T07:18:32.732Z,11.43
2023-10-26T07:21:00.031Z,10.52
2023-10-26T07:23:27.278Z,10.77
2023-10-26T07:25:54.706Z,13.68
2023-10-26T07:28:21.956Z,8.63
2023-10-26T07:30:52.327Z,12.90
2023-10-26T07:35:51.759Z,10.90
2023-10-26T07:38:35.680Z,9.05
2023-10-26T07:41:05.988Z,11.20
2023-10-26T07:43:33.671Z,11.80
2023-10-26T07:46:01.021Z,11.73
2023-10-26T07:48:28.382Z,8.15
2023-10-26T07:50:57.453Z,9.48
2023-10-26T07:53:25.133Z,9.70
2023-10-26T07:55:52.408Z,12.60
2023-10-26T07:58:19.730Z,8.77
2023-10-26T08:00:47.028Z,9.70
2023-10-26T08:03:14.279Z,7.53
2023-10-26T08:05:41.508Z,7.97
2023-10-26T08:08:08.752Z,8.52
2023-10-26T08:10:38.401Z,7.03
2023-10-26T08:13:06.215Z,10.30
2023-10-26T08:16:06.365Z,8.43
2023-10-26T08:18:21.204Z,7.53
2023-10-26T08:20:52.840Z,8.93
2023-10-26T08:23:20.634Z,7.85
2023-10-26T08:25:48.755Z,6.35
2023-10-26T08:28:19.440Z,8.32
2023-10-26T08:30:46.712Z,6.63
2023-10-26T08:33:14.122Z,7.75
2023-10-26T08:35:49.244Z,7.47
2023-10-26T08:38:16.667Z,8.68
2023-10-26T08:40:53.921Z,7.60
2023-10-26T08:43:21.854Z,7.18
2023-10-26T08:45:50.018Z,7.22
2023-10-26T08:48:18.161Z,7.30
2023-10-26T08:50:49.681Z,7.00
2023-10-26T08:53:17.104Z,8.55
2023-10-26T08:55:44.967Z,7.00
2023-10-26T08:58:12.267Z,6.78
2023-10-26T09:00:41.806Z,6.38
2023-10-26T09:03:09.429Z,6.68
2023-10-26T09:05:53.209Z,6.28
2023-10-26T09:08:20.555Z,6.90
2023-10-26T09:10:47.812Z,5.60
2023-10-26T09:13:23.549Z,7.05
2023-10-26T09:15:51.536Z,6.32
2023-10-26T09:18:18.964Z,6.97
2023-10-26T09:21:02.517Z,6.93
2023-10-26T09:23:30.698Z,7.03
2023-10-26T09:26:01.823Z,6.72
2023-10-26T09:28:29.282Z,5.82
2023-10-26T09:31:01.035Z,7.57
2023-10-26T09:33:28.872Z,6.60
2023-10-26T09:35:56.069Z,6.72
2023-10-26T09:38:37.162Z,6.78
2023-10-26T09:41:12.049Z,7.20
2023-10-26T09:43:42.120Z,7.03
2023-10-26T09:46:12.932Z,7.20
2023-10-26T09:48:42.061Z,7.40
2023-10-26T09:51:12.133Z,7.65
2023-10-26T09:53:41.852Z,7.07
2023-10-26T09:56:13.919Z,7.40
2023-10-26T10:01:28.302Z,6.82
2023-10-26T10:03:55.900Z,6.35
2023-10-26T10:06:42.037Z,6.82
2023-10-26T10:09:11.625Z,6.78
2023-10-26T10:11:40.201Z,7.20
2023-10-26T10:14:08.080Z,6.53
2023-10-26T10:16:35.556Z,7.80
2023-10-26T10:19:19.239Z,7.68
2023-10-26T10:21:48.088Z,7.63
2023-10-26T10:24:47.909Z,7.13
2023-10-26T10:27:17.332Z,8.05
2023-10-26T10:29:44.676Z,8.20
2023-10-26T10:32:12.817Z,7.63
2023-10-26T10:34:44.259Z,7.00
2023-10-26T10:37:12.077Z,8.10
2023-10-26T10:39:39.797Z,7.35
2023-10-26T10:42:11.695Z,7.68
2023-10-26T10:44:40.825Z,7.93
2023-10-26T10:47:08.262Z,8.52
2023-10-26T10:49:35.416Z,7.90
2023-10-26T10:52:14.768Z,8.13
2023-10-26T10:57:18.164Z,7.82
2023-10-26T10:59:45.460Z,7.63
2023-10-26T11:02:16.089Z,8.32
2023-10-26T11:05:02.378Z,7.90
2023-10-26T11:07:33.185Z,8.75
2023-10-26T11:10:01.258Z,7.97
2023-10-26T11:12:28.882Z,7.85
2023-10-26T11:14:57.494Z,8.02
2023-10-26T11:17:25.678Z,9.52
2023-10-26T11:19:53.209Z,9.73
2023-10-26T11:22:20.845Z,9.30
2023-10-26T11:24:48.430Z,9.02
2023-10-26T11:27:17.265Z,8.80
2023-10-26T11:29:46.608Z,7.82
2023-10-26T11:32:27.785Z,8.13
2023-10-26T11:35:15.022Z,6.38
2023-10-26T11:37:49.897Z,7.88
2023-10-26T11:40:17.673Z,8.35
2023-10-26T11:42:49.583Z,8.45
2023-10-26T11:45:17.708Z,8.55
2023-10-26T11:47:49.549Z,9.75
2023-10-26T11:50:27.746Z,8.77
2023-10-26T11:52:56.988Z,8.95
2023-10-26T11:55:25.749Z,9.20
2023-10-26T11:57:53.543Z,9.85
2023-10-26T12:00:20.934Z,10.70
2023-10-26T12:02:48.156Z,8.95
2023-10-26T12:05:19.325Z,9.40
2023-10-26T12:07:48.473Z,9.02
2023-10-26T12:10:17.947Z,8.63
2023-10-26T12:12:45.619Z,9.18
2023-10-26T12:15:13.185Z,9.00
2023-10-26T12:17:40.429Z,8.43
2023-10-26T12:20:09.211Z,9.23
2023-10-26T12:22:36.472Z,8.90
2023-10-26T12:25:07.878Z,9.23
2023-10-26T12:28:20.681Z,9.40
2023-10-26T12:30:22.704Z,8.95
2023-10-26T12:32:50.000Z,8.93
2023-10-26T12:35:17.534Z,9.18
2023-10-26T12:37:44.758Z,8.63
2023-10-26T12:40:12.201Z,9.13
2023-10-26T12:42:40.528Z,9.20
2023-10-26T12:45:08.075Z,9.80
2023-10-26T12:47:35.318Z,9.40
2023-10-26T12:50:02.632Z,8.63
2023-10-26T12:52:29.852Z,8.57
2023-10-26T12:54:57.098Z,8.75
2023-10-26T12:57:24.279Z,9.65
2023-10-26T12:59:51.848Z,9.88
2023-10-26T13:02:19.101Z,8.35
2023-10-26T13:04:46.644Z,9.32
2023-10-26T13:07:14.086Z,8.43
2023-10-26T13:09:43.919Z,8.23
2023-10-26T13:14:38.714Z,8.40
2023-10-26T13:17:06.212Z,7.75
2023-10-26T13:19:33.572Z,8.23
2023-10-26T13:22:00.865Z,8.68
2023-10-26T13:24:28.236Z,8.55
2023-10-26T13:26:56.570Z,8.52
2023-10-26T13:29:23.927Z,8.15
2023-10-26T13:31:51.171Z,9.23
2023-10-26T13:34:18.395Z,8.63
2023-10-26T13:36:45.671Z,8.32
2023-10-26T13:39:12.924Z,8.52
2023-10-26T13:41:40.352Z,9.65
2023-10-26T13:44:07.553Z,9.25
2023-10-26T13:46:35.902Z,8.80
2023-10-26T13:49:03.546Z,9.57
2023-10-26T13:51:30.823Z,9.35
2023-10-26T13:53:57.676Z,9.18
2023-10-26T13:56:24.951Z,9.40
2023-10-26T13:58:51.689Z,8.85
2023-10-26T14:01:19.264Z,9.82
2023-10-26T14:03:46.602Z,8.43
2023-10-26T14:06:14.287Z,9.93
2023-10-26T14:08:41.528Z,8.80
2023-10-26T14:11:08.695Z,9.25
2023-10-26T14:13:36.117Z,10.15
2023-10-26T14:16:03.690Z,8.88
2023-10-26T14:18:31.034Z,8.80
2023-10-26T14:20:58.311Z,8.55
2023-10-26T14:23:25.468Z,9.60
2023-10-26T14:25:52.719Z,9.55
2023-10-26T14:28:19.906Z,9.18
2023-10-26T14:30:47.315Z,8.93
2023-10-26T14:33:14.588Z,9.25
2023-10-26T14:35:41.882Z,8.98
2023-10-26T14:38:10.531Z,8.30
2023-10-26T14:40:38.405Z,9.13
2023-10-26T14:43:05.654Z,8.40
2023-10-26T14:45:34.855Z,9.85
2023-10-26T14:48:02.226Z,8.73
2023-10-26T14:50:29.694Z,8.75
2023-10-26T14:52:57.061Z,9.50
2023-10-26T14:55:24.900Z,9.20
2023-10-26T14:57:52.159Z,9.80
2023-10-26T15:00:19.419Z,9.82
2023-10-26T15:02:46.726Z,9.73
2023-10-26T15:05:13.874Z,9.82
2023-10-26T15:07:41.848Z,13.20
2023-10-26T15:10:23.966Z,11.32
2023-10-26T15:12:54.722Z,9.88
2023-10-26T15:15:22.737Z,10.10
2023-10-26T15:17:50.005Z,9.32
2023-10-26T15:20:17.505Z,10.32
2023-10-26T15:22:45.064Z,9.75
2023-10-26T15:25:12.305Z,9.32
2023-10-26T15:27:39.579Z,8.55
2023-10-26T15:30:07.313Z,8.63
2023-10-26T15:32:34.567Z,9.48
2023-10-26T15:35:02.070Z,9.30
2023-10-26T15:37:29.288Z,8.70
2023-10-26T15:39:56.489Z,8.75
2023-10-26T15:42:24.691Z,8.20
2023-10-26T15:44:55.763Z,8.55
2023-10-26T15:47:23.375Z,8.38
2023-10-26T15:49:52.943Z,7.97
2023-10-26T15:52:20.494Z,8.43
2023-10-26T15:54:49.158Z,9.02
2023-10-26T15:57:16.393Z,9.18
2023-10-26T15:59:43.773Z,8.73
2023-10-26T16:02:11.191Z,9.35
2023-10-26T16:04:38.768Z,9.95
2023-10-26T16:07:06.136Z,9.18
2023-10-26T16:09:37.186Z,9.65
2023-10-26T16:12:05.101Z,8.45
2023-10-26T16:14:32.483Z,10.68
2023-10-26T16:16:59.689Z,8.15
2023-10-26T16:19:28.265Z,9.43
2023-10-26T16:21:55.764Z,9.63
2023-10-26T16:24:23.115Z,9.18
2023-10-26T16:26:50.375Z,8.50
2023-10-26T16:29:17.546Z,9.70
2023-10-26T16:31:44.800Z,9.07
2023-10-26T16:34:12.113Z,8.65
2023-10-26T16:36:39.558Z,10.38
2023-10-26T16:39:06.840Z,9.40
2023-10-26T16:41:34.183Z,10.18
2023-10-26T16:44:01.359Z,9.70
2023-10-26T16:46:28.832Z,10.65
2023-10-26T16:48:56.112Z,10.93
2023-10-26T16:51:23.619Z,11.63
2023-10-26T16:53:50.870Z,10.95
2023-10-26T16:56:18.515Z,11.18
2023-10-26T16:58:45.861Z,9.88
2023-10-26T17:01:13.460Z,11.73
2023-10-26T17:03:40.990Z,14.13
2023-10-26T17:06:10.226Z,19.52
2023-10-26T17:08:37.602Z,10.27
2023-10-26T17:11:05.019Z,10.55
2023-10-26T17:13:32.431Z,10.68
2023-10-26T17:15:59.940Z,12.45
2023-10-26T17:18:27.141Z,16.52
2023-10-26T17:20:57.837Z,18.02
2023-10-26T17:23:25.689Z,36.33
2023-10-26T17:25:53.024Z,20.02
2023-10-26T17:28:20.315Z,13.20
2023-10-26T17:30:47.517Z,14.07
2023-10-26T17:33:18.816Z,12.43
2023-10-26T17:35:49.267Z,12.65
2023-10-26T17:38:16.782Z,11.95
2023-10-26T17:40:46.618Z,13.73
2023-10-26T17:43:14.583Z,12.88
2023-10-26T17:45:41.639Z,14.23
2023-10-26T17:48:11.125Z,12.57
2023-10-26T17:50:40.997Z,12.70
2023-10-26T17:53:08.484Z,13.35
2023-10-26T17:55:35.942Z,15.15
2023-10-26T17:58:03.236Z,16.33
2023-10-26T18:00:30.582Z,14.10
2023-10-26T18:02:57.928Z,12.98
2023-10-26T18:05:25.300Z,12.40
2023-10-26T18:07:52.526Z,11.65
2023-10-26T18:10:21.323Z,11.60
2023-10-26T18:12:49.534Z,12.68
2023-10-26T18:15:16.966Z,12.38
2023-10-26T18:17:44.452Z,12.38
2023-10-26T18:20:12.120Z,12.98
2023-10-26T18:22:40.398Z,16.45
2023-10-26T18:25:10.489Z,11.77
2023-10-26T18:27:38.120Z,13.82
2023-10-26T18:30:06.167Z,11.73
2023-10-26T18:32:33.744Z,12.55
2023-10-26T18:35:01.014Z,11.38
2023-10-26T18:37:28.334Z,12.30
2023-10-26T18:39:57.675Z,14.35
2023-10-26T18:42:25.200Z,12.38
2023-10-26T18:44:52.786Z,12.85
2023-10-26T18:47:20.016Z,15.60
2023-10-26T18:49:47.424Z,19.05
2023-10-26T18:52:14.592Z,12.63
2023-10-26T18:54:42.037Z,12.90
2023-10-26T18:57:09.512Z,14.10
2023-10-26T18:59:36.916Z,12.05
2023-10-26T19:02:04.889Z,16.02
2023-10-26T19:04:33.246Z,11.68
2023-10-26T19:07:02.444Z,10.68
2023-10-26T19:09:30.629Z,13.60
2023-10-26T19:11:58.070Z,14.27
2023-10-26T19:14:25.280Z,12.18
2023-10-26T19:16:52.622Z,11.57
2023-10-26T19:19:19.979Z,14.40
2023-10-26T19:21:47.162Z,12.20
2023-10-26T19:24:16.689Z,10.77
2023-10-26T19:26:43.995Z,11.00
2023-10-26T19:29:11.301Z,11.60
2023-10-26T19:31:38.506Z,11.88
2023-10-26T19:34:05.787Z,12.18
2023-10-26T19:36:33.021Z,11.75
2023-10-26T19:39:00.252Z,12.23
2023-10-26T19:41:27.709Z,11.43
2023-10-26T19:43:54.990Z,12.40
2023-10-26T19:46:22.315Z,12.32
2023-10-26T19:48:49.664Z,12.20
2023-10-26T19:51:17.064Z,12.75
2023-10-26T19:53:47.630Z,13.07
2023-10-26T19:56:15.748Z,13.93
2023-10-26T19:58:42.947Z,13.07
2023-10-26T20:01:16.540Z,11.57
2023-10-26T20:03:43.889Z,12.43
2023-10-26T20:06:11.226Z,15.15
2023-10-26T20:08:38.496Z,12.43
2023-10-26T20:11:05.931Z,12.27
2023-10-26T20:13:33.123Z,14.20
2023-10-26T20:16:00.458Z,12.80
2023-10-26T20:18:28.399Z,13.00
2023-10-26T20:20:55.591Z,12.73
2023-10-26T20:23:22.821Z,15.55
2023-10-26T20:25:50.512Z,13.57
2023-10-26T20:28:17.993Z,15.18
2023-10-26T20:30:45.363Z,14.63
2023-10-26T20:33:12.786Z,14.32
2023-10-26T20:35:42.074Z,15.75
2023-10-26T20:38:09.301Z,16.00
2023-10-26T20:40:40.858Z,15.25
2023-10-26T20:43:08.220Z,15.65
2023-10-26T20:45:35.743Z,14.13
2023-10-26T20:48:03.201Z,15.18
2023-10-26T20:50:30.805Z,15.07
2023-10-26T20:53:01.467Z,15.18
2023-10-26T20:55:28.598Z,16.63
2023-10-26T20:57:55.807Z,14.60
2023-10-26T21:00:23.090Z,17.77
2023-10-26T21:02:50.905Z,17.83
2023-10-26T21:05:18.169Z,15.50
2023-10-26T21:07:45.465Z,15.18
2023-10-26T21:10:12.860Z,15.18
2023-10-26T21:12:40.351Z,15.65
2023-10-26T21:15:07.773Z,14.23
2023-10-26T21:17:37.441Z,16.65
2023-10-26T21:20:08.342Z,16.20
2023-10-26T21:22:37.507Z,14.93
2023-10-26T21:25:05.864Z,16.40
2023-10-26T21:27:33.147Z,16.67
2023-10-26T21:30:00.443Z,17.42
2023-10-26T21:32:27.769Z,18.33
2023-10-26T21:34:55.205Z,17.52
2023-10-26T21:37:22.588Z,17.42
2023-10-26T21:39:49.977Z,17.17
2023-10-26T21:42:17.398Z,17.85
2023-10-26T21:44:44.769Z,17.67
2023-10-26T21:47:12.090Z,17.50
2023-10-26T21:49:39.332Z,16.20
2023-10-26T21:52:06.670Z,16.42
2023-10-26T21:54:33.897Z,15.98
2023-10-26T21:57:01.135Z,16.60
2023-10-26T21:59:28.504Z,17.55
2023-10-26T22:01:55.875Z,15.23
2023-10-26T22:04:23.304Z,17.25
2023-10-26T22:06:50.666Z,16.88
2023-10-26T22:09:18.265Z,18.17
2023-10-26T22:11:45.663Z,16.02
2023-10-26T22:14:12.848Z,16.33
2023-10-26T22:16:41.435Z,17.20
2023-10-26T22:19:08.835Z,14.90
2023-10-26T22:21:36.038Z,17.65
2023-10-26T22:24:03.324Z,18.38
2023-10-26T22:26:30.527Z,16.27
2023-10-26T22:28:57.652Z,17.65
2023-10-26T22:31:25.394Z,16.58
2023-10-26T22:33:52.600Z,17.30
2023-10-26T22:36:19.764Z,17.00
2023-10-26T22:38:46.946Z,16.33
2023-10-26T22:41:14.708Z,16.23
2023-10-26T22:43:41.861Z,16.20
2023-10-26T22:46:09.527Z,15.50
2023-10-26T22:48:36.808Z,16.90
2023-10-26T22:51:04.104Z,17.05
2023-10-26T22:53:31.316Z,16.25
2023-10-26T22:55:58.711Z,16.83
2023-10-26T22:58:25.962Z,16.63
2023-10-26T23:00:53.212Z,16.20
2023-10-26T23:03:20.480Z,15.85
2023-10-26T23:05:47.682Z,17.30
2023-10-26T23:08:15.342Z,17.08
2023-10-26T23:10:42.869Z,17.27
2023-10-26T23:13:10.117Z,16.65
2023-10-26T23:15:37.390Z,15.77
2023-10-26T23:18:04.678Z,15.73
2023-10-26T23:20:32.159Z,15.65
2023-10-26T23:22:59.403Z,17.65
2023-10-26T23:25:26.717Z,17.40
2023-10-26T23:27:54.120Z,17.25
2023-10-26T23:30:21.857Z,17.30
2023-10-26T23:32:49.638Z,16.60
2023-10-26T23:35:17.009Z,16.88
2023-10-26T23:37:44.279Z,17.23
2023-10-26T23:40:11.643Z,17.33
2023-10-26T23:42:38.994Z,16.83
2023-10-26T23:45:06.369Z,16.65
2023-10-26T23:47:33.553Z,17.42
2023-10-26T23:50:00.722Z,16.90
2023-10-26T23:52:28.015Z,17.63
2023-10-26T23:54:55.274Z,17.17
2023-10-26T23:57:22.495Z,17.15
2023-10-26T23:59:49.689Z,17.77
